Flight Track Log - Related Links

Times and Time Zones

All times are in EDT time to prevent confusion due to time zone crossing. See the EJM949 flight status page for this flight to view local times or setup timezone preferences in your user account.

Time Position Orientation Groundspeed Altitude Reporting Facility
EDT Latitude Longitude Course Direction KTS MPH feet Rate Location/Type
Sat 07:26:50 PM 42.4478 -122.7936 178° South 228 262 8,000  Level Seattle Center
Sat 07:27:51 PM 42.3800 -122.7742 168° South 262 302 10,700 2,607 Climbing Seattle Center
Sat 07:28:52 PM 42.2825 -122.7692 178° South 329 379 13,300 2,705 Climbing Seattle Center
Sat 07:29:53 PM 42.1847 -122.7633 177° South 349 402 16,200 2,803 Climbing Seattle Center
Sat 07:30:54 PM 42.0889 -122.7586 178° South 360 414 19,000 2,803 Climbing Seattle Center
Sat 07:31:00 PM 41.7745 -122.8144 178° South  Level FlightAware Approximate
Sat 07:31:55 PM 41.9856 -122.7533 178° South 369 425 21,900  Level Seattle Center
Sat 07:32:00 PM 41.6755 -122.8092 178° South  Level FlightAware Approximate
Sat 07:32:56 PM 41.8786 -122.7461 177° South 383 441 24,100  Level Seattle Center
Sat 07:33:57 PM 41.7650 -122.7406 178° South 409 471 26,400 2,164 Climbing Seattle Center
Sat 07:34:58 PM 41.6492 -122.7347 178° South 422 486 28,500 2,075 Climbing Seattle Center
Sat 07:35:44 PM 41.5511 -122.7339 180° South 425 489 30,100 2,131 Climbing Oakland Center
Sat 07:36:45 PM 41.4297 -122.7269 178° South 435 501 32,300 2,262 Climbing Oakland Center
Sat 07:37:46 PM 41.3092 -122.7197 177° South 435 501 34,700 2,289 Climbing Oakland Center
Sat 07:38:01 PM 41.2847 -122.7172 176° South 433 498 35,200 2,211 Climbing Seattle Center
Sat 07:39:02 PM 41.1681 -122.7100 177° South 424 488 37,500 1,833 Climbing Seattle Center
Sat 07:39:49 PM 41.0753 -122.7072 179° South 421 484 38,500 1,444 Climbing Oakland Center
Sat 07:40:50 PM 40.9581 -122.7014 178° South 423 487 40,100 1,180 Climbing Oakland Center
Sat 07:41:51 PM 40.8381 -122.6958 178° South 430 495 40,900 443 Climbing Oakland Center
Sat 07:42:52 PM 40.6936 -122.6875 177° South 434 499 41,000 49 Climbing Oakland Center
Sat 07:43:53 PM 40.5722 -122.6800 177° South 437 503 41,000  Level Oakland Center
Sat 07:44:55 PM 40.4503 -122.6742 178° South 439 505 41,000  Level Oakland Center
Sat 07:45:56 PM 40.3303 -122.6694 178° South 436 502 41,000  Level Oakland Center
Sat 07:46:57 PM 40.2089 -122.6628 178° South 440 506 41,000  Level Oakland Center
Sat 07:47:58 PM 40.0892 -122.6586 178° South 437 503 41,000 -344 Level Oakland Center
Sat 07:48:59 PM 39.9722 -122.6519 177° South 429 494 40,300 -1,561 Descending Oakland Center
Sat 07:50:01 PM 39.8308 -122.6447 178° South 427 491 37,800 -2,195 Descending Oakland Center
Sat 07:51:02 PM 39.7125 -122.6400 178° South 428 493 35,800 -2,016 Descending Oakland Center
Sat 07:52:03 PM 39.5922 -122.6333 178° South 432 497 33,700 -2,016 Descending Oakland Center
Sat 07:53:04 PM 39.4711 -122.6275 178° South 437 503 31,700 -2,066 Descending Oakland Center
Sat 07:54:05 PM 39.3486 -122.6206 177° South 440 506 29,500 -2,066 Descending Oakland Center
Sat 07:55:06 PM 39.2292 -122.6142 178° South 430 495 27,500 -1,951 Descending Oakland Center
Sat 07:56:08 PM 39.1156 -122.6086 178° South 423 487 25,500 -1,902 Descending Oakland Center
Sat 07:57:09 PM 39.0039 -122.6028 178° South 406 467 23,600 -1,918 Descending Oakland Center
Sat 07:58:10 PM 38.8922 -122.5983 178° South 399 459 21,600 -2,066 Descending Oakland Center
Sat 07:59:11 PM 38.7636 -122.5917 178° South 385 443 19,400 -2,016 Descending Oakland Center
Sat 08:00:12 PM 38.6592 -122.5867 178° South 377 434 17,500 -1,770 Descending Oakland Center
Sat 08:01:13 PM 38.5553 -122.5822 178° South 373 429 15,800 -1,707 Descending Oakland Center
Sat 08:02:15 PM 38.4536 -122.5767 178° South 366 421 14,000 -1,707 Descending Oakland Center
Sat 08:03:16 PM 38.3544 -122.5728 178° South 357 411 12,300 -1,623 Descending Oakland Center
Sat 08:04:17 PM 38.2625 -122.5689 178° South 335 386 10,700 -1,475 Descending Oakland Center
Sat 08:05:18 PM 38.1828 -122.5503 170° South 310 357 9,300 -1,230 Descending Oakland Center
Sat 08:06:19 PM 38.1111 -122.4983 150° Southeast 299 344 8,200 -689 Descending Oakland Center
Sat 08:07:20 PM 38.0478 -122.4517 150° Southeast 270 311 7,900 -689 Descending Oakland Center
Sat 08:08:21 PM 37.9900 -122.4114 151° Southeast 240 276 6,800 -1,033 Descending Oakland Center
Sat 08:09:22 PM 37.9389 -122.3625 143° Southeast 236 272 5,800 -885 Descending Oakland Center
Sat 08:10:23 PM 37.9028 -122.2961 125° Southeast 229 264 5,000 -390 Descending Oakland Center
Sat 08:11:25 PM 37.8667 -122.2294 124° Southeast 229 264 5,000 62 Level Oakland Center
Sat 08:12:00 PM 37.8333 -122.1833 132° Southeast 229 264 5,100  Climbing Northern Cal TRACON
Sat 08:13:00 PM 37.8000 -122.1167 122° Southeast 231 266 5,000  Descending Northern Cal TRACON
Sat 08:14:00 PM 37.7667 -122.0500 122° Southeast 205 236 5,100  Climbing Northern Cal TRACON
Sat 08:15:00 PM 37.7333 -122.0000 130° Southeast 205 236 5,000 -50 Descending Northern Cal TRACON
Sat 08:16:00 PM 37.6833 -121.9500 142° Southeast 203 234 5,000 -200 Level Northern Cal TRACON
Sat 08:17:00 PM 37.6333 -121.9333 165° South 196 226 4,600 -744 Descending Northern Cal TRACON
Sat 08:18:01 PM 37.6000 -121.9667 218° Southwest 184 212 3,500 -744 Descending Northern Cal TRACON
Sat 08:19:01 PM 37.6000 -122.0333 270° West 174 200 3,100 -400 Descending Northern Cal TRACON
Sat 08:20:01 PM 37.6167 -122.0833 293° West 168 193 2,700 -550 Descending Northern Cal TRACON
Sat 08:21:01 PM 37.6333 -122.1167 302° West 141 162 2,000 -750 Descending Northern Cal TRACON
Sat 08:22:01 PM 37.6667 -122.1667 310° West 144 166 1,200 -750 Descending Northern Cal TRACON
Sat 08:23:01 PM 37.6833 -122.2000 302° West 138 159 500 -700 Descending Northern Cal TRACON

Login

Don't have an account? Register now (free) for customized features, flight alerts, and more!